Time;durP1;ratioP1;P1;durP2;ratioP2;P2;SDS_P1;SDS_P2;PMS_P1;PMS_P2;Temp;Humidity;BMP_temperature;BMP_pressure;BME280_temperature;BME280_humidity;BME280_pressure;Samples;Min_cycle;Max_cycle;Signal;HPM_P1;HPM_P2
2021/01/08 00:01:17;;;;;;;1.30;0.82;;;;;;;1.37;82.62;98634.83;1740796;81;21158;-55
2021/01/08 00:03:44;;;;;;;1.02;0.60;;;;;;;1.30;82.74;98638.17;1768137;81;21604;-56
2021/01/08 00:06:12;;;;;;;2.08;1.02;;;;;;;1.37;82.57;98646.08;1768330;80;21186;-55
2021/01/08 00:08:41;;;;;;;1.98;1.07;;;;;;;1.32;82.33;98651.33;1766046;80;21186;-54
2021/01/08 00:11:08;;;;;;;1.55;0.88;;;;;;;1.28;82.70;98659.03;1715866;82;21149;-55
2021/01/08 00:13:35;;;;;;;1.25;0.88;;;;;;;1.31;82.57;98654.53;1687340;85;21348;-55
2021/01/08 00:16:06;;;;;;;1.60;0.70;;;;;;;1.34;81.91;98659.97;1692418;85;21632;-54
2021/01/08 00:18:33;;;;;;;1.75;0.65;;;;;;;1.32;80.95;98662.88;1668930;85;21164;-55
2021/01/08 00:21:00;;;;;;;1.90;0.98;;;;;;;1.36;80.69;98662.69;1722480;82;21191;-55
2021/01/08 00:23:28;;;;;;;1.90;0.85;;;;;;;1.31;80.83;98669.28;1667645;85;21219;-54
2021/01/08 00:25:56;;;;;;;1.90;0.98;;;;;;;1.35;80.98;98672.30;1692479;83;21365;-55
2021/01/08 00:28:23;;;;;;;2.17;0.88;;;;;;;1.33;81.07;98671.73;1721527;82;21192;-55
2021/01/08 00:30:52;;;;;;;1.82;0.90;;;;;;;1.28;81.38;98673.78;1702945;83;21592;-55
2021/01/08 00:33:19;;;;;;;2.05;0.80;;;;;;;1.31;81.12;98669.28;1693374;83;21168;-54
2021/01/08 00:35:46;;;;;;;2.10;1.15;;;;;;;1.37;80.64;98664.84;1692643;85;21213;-55
2021/01/08 00:38:14;;;;;;;1.77;0.85;;;;;;;1.31;80.72;98665.81;1694983;83;21163;-54
2021/01/08 00:40:41;;;;;;;2.22;1.00;;;;;;;1.32;80.87;98660.19;1692668;85;21191;-55
2021/01/08 00:43:09;;;;;;;1.70;0.88;;;;;;;1.38;80.58;98661.13;1692835;85;21305;-55
2021/01/08 00:45:36;;;;;;;2.08;1.17;;;;;;;1.36;80.61;98677.95;1699934;83;21167;-55
2021/01/08 00:48:06;;;;;;;1.95;0.98;;;;;;;1.31;80.75;98669.83;1721460;82;21647;-54
2021/01/08 00:50:34;;;;;;;1.85;0.90;;;;;;;1.36;80.54;98668.05;1669304;84;21200;-55
2021/01/08 00:53:02;;;;;;;2.47;0.90;;;;;;;1.34;80.91;98678.21;1710674;83;21567;-55
2021/01/08 00:55:29;;;;;;;3.02;1.30;;;;;;;1.33;80.86;98686.48;1701019;83;21310;-55
2021/01/08 00:57:59;;;;;;;2.20;1.00;;;;;;;1.37;80.47;98682.27;1721816;82;21309;-56
2021/01/08 01:00:26;;;;;;;1.75;0.90;;;;;;;1.35;80.37;98687.05;1721538;83;21203;-55
2021/01/08 01:02:54;;;;;;;2.30;1.17;;;;;;;1.41;80.34;98683.44;1719550;83;21183;-55
2021/01/08 01:05:21;;;;;;;1.72;0.90;;;;;;;1.31;80.16;98688.59;1730879;81;21158;-55
2021/01/08 01:07:49;;;;;;;2.17;1.00;;;;;;;1.31;80.42;98692.06;1687138;85;21588;-55
2021/01/08 01:10:16;;;;;;;1.80;0.75;;;;;;;1.35;79.87;98695.91;1690729;84;21177;-55
2021/01/08 01:12:45;;;;;;;1.10;0.70;;;;;;;1.31;80.04;98700.11;1670161;84;21184;-55
2021/01/08 01:15:17;;;;;;;1.72;0.80;;;;;;;1.33;80.19;98695.87;1659015;86;21219;-55
2021/01/08 01:17:43;;;;;;;2.75;1.10;;;;;;;1.42;80.07;98698.45;1693195;85;21180;-55
2021/01/08 01:20:12;;;;;;;2.08;0.88;;;;;;;1.32;80.11;98707.11;1693054;85;21196;-55
2021/01/08 01:22:39;;;;;;;2.10;1.00;;;;;;;1.33;79.61;98707.41;1693587;83;21152;-55
2021/01/08 01:25:09;;;;;;;2.22;1.10;;;;;;;1.38;80.00;98715.54;1715648;83;21164;-54
2021/01/08 01:27:38;;;;;;;2.40;1.20;;;;;;;1.45;80.19;98721.58;1693569;83;21725;-54
2021/01/08 01:30:08;;;;;;;2.72;1.20;;;;;;;1.40;80.35;98711.30;1718221;83;21160;-56
2021/01/08 01:32:36;;;;;;;2.50;0.90;;;;;;;1.37;80.27;98717.14;1693643;83;21196;-55
2021/01/08 01:35:05;;;;;;;1.60;0.88;;;;;;;1.43;80.18;98727.72;1718863;83;21160;-54
2021/01/08 01:37:33;;;;;;;1.60;1.00;;;;;;;1.45;80.29;98728.29;1721901;83;21210;-55
2021/01/08 01:40:00;;;;;;;2.42;1.27;;;;;;;1.45;80.31;98718.91;1721843;83;21220;-55
2021/01/08 01:42:28;;;;;;;1.98;1.00;;;;;;;1.35;80.43;98725.92;1718479;83;21194;-55
2021/01/08 01:44:55;;;;;;;3.17;1.20;;;;;;;1.42;80.21;98722.59;1693084;85;21650;-55
2021/01/08 01:47:23;;;;;;;2.90;0.90;;;;;;;1.42;79.74;98724.74;1692747;85;21329;-55
2021/01/08 01:49:52;;;;;;;1.60;0.98;;;;;;;1.41;79.90;98724.48;1692914;85;21318;-54
2021/01/08 01:52:20;;;;;;;1.90;1.10;;;;;;;1.44;79.83;98722.66;1644219;85;21144;-55
2021/01/08 01:54:48;;;;;;;2.77;1.10;;;;;;;1.48;79.66;98715.77;1669319;83;21171;-55
2021/01/08 01:57:16;;;;;;;1.82;1.27;;;;;;;1.43;79.58;98720.20;1721760;83;21298;-55
2021/01/08 01:59:43;;;;;;;3.33;1.50;;;;;;;1.44;79.76;98727.20;1693577;83;21342;-55
2021/01/08 02:02:16;;;;;;;2.37;1.40;;;;;;;1.46;79.35;98724.56;1682322;84;21184;-56
2021/01/08 02:04:44;;;;;;;2.10;1.22;;;;;;;1.44;79.62;98733.39;1719881;83;21212;-56
2021/01/08 02:07:12;;;;;;;1.90;1.07;;;;;;;1.42;79.75;98742.70;1721839;83;21148;-54
2021/01/08 02:09:39;;;;;;;2.55;1.32;;;;;;;1.40;79.20;98736.25;1720567;82;21655;-55
2021/01/08 02:12:07;;;;;;;2.20;1.27;;;;;;;1.38;79.51;98741.02;1722281;82;21158;-54
2021/01/08 02:14:35;;;;;;;2.60;1.50;;;;;;;1.41;79.74;98735.73;1720430;83;21194;-54
2021/01/08 02:17:02;;;;;;;2.77;1.50;;;;;;;1.40;79.51;98738.93;1720412;83;21211;-55
2021/01/08 02:19:44;;;;;;;2.87;1.40;;;;;;;1.38;79.95;98740.23;1720471;83;21707;-55
2021/01/08 02:22:43;;;;;;;2.30;1.40;;;;;;;1.41;80.21;98745.11;1712057;83;21261;-55
2021/01/08 02:25:15;;;;;;;2.72;1.45;;;;;;;1.37;80.54;98749.31;1730609;82;21196;-55
2021/01/08 02:27:59;;;;;;;2.10;1.30;;;;;;;1.43;80.65;98751.05;1750363;82;21184;-54
2021/01/08 02:30:26;;;;;;;2.47;1.60;;;;;;;1.38;80.57;98746.93;1739799;82;21152;-55
2021/01/08 02:32:54;;;;;;;2.60;1.30;;;;;;;1.39;80.74;98753.38;1746962;82;21137;-55
2021/01/08 02:35:22;;;;;;;2.80;1.50;;;;;;;1.45;80.53;98749.74;1750364;82;21338;-54
2021/01/08 02:37:49;;;;;;;1.70;1.10;;;;;;;1.40;80.70;98752.86;1750268;82;21172;-55
2021/01/08 02:40:17;;;;;;;1.80;1.20;;;;;;;1.42;80.50;98753.42;1740010;82;21613;-55
2021/01/08 02:42:45;;;;;;;2.22;1.42;;;;;;;1.46;79.96;98778.20;1720700;82;21128;-56
2021/01/08 02:45:14;;;;;;;2.50;1.30;;;;;;;1.52;79.95;98766.25;1741118;82;21627;-55
2021/01/08 02:47:42;;;;;;;2.58;1.37;;;;;;;1.42;80.43;98773.54;1750315;82;21229;-54
2021/01/08 02:50:14;;;;;;;1.90;1.30;;;;;;;1.46;80.36;98762.63;1740762;82;21348;-56
2021/01/08 02:52:42;;;;;;;2.95;1.40;;;;;;;1.53;80.25;98764.66;1720821;82;21179;-54
2021/01/08 02:55:11;;;;;;;3.00;1.47;;;;;;;1.42;80.48;98762.81;1720478;83;21155;-55
2021/01/08 02:57:41;;;;;;;2.30;1.50;;;;;;;1.45;80.35;98773.88;1720409;83;21179;-55
2021/01/08 03:00:13;;;;;;;2.95;1.87;;;;;;;1.55;80.19;98773.30;1733211;82;21159;-54
2021/01/08 03:02:40;;;;;;;2.52;1.60;;;;;;;1.50;80.52;98785.25;1720681;82;21177;-57
2021/01/08 03:05:10;;;;;;;2.40;1.40;;;;;;;1.49;80.68;98777.73;1715219;82;21138;-55
2021/01/08 03:07:38;;;;;;;3.40;1.80;;;;;;;1.55;80.43;98774.64;1714955;83;21344;-55
2021/01/08 03:10:07;;;;;;;2.70;1.70;;;;;;;1.48;80.37;98780.14;1726518;81;21193;-54
2021/01/08 03:12:35;;;;;;;3.02;1.80;;;;;;;1.50;80.19;98787.94;1767828;80;21637;-55
2021/01/08 03:15:07;;;;;;;3.30;1.42;;;;;;;1.56;79.73;98784.30;1767497;81;21339;-55
2021/01/08 03:17:34;;;;;;;3.17;1.80;;;;;;;1.56;79.80;98787.53;1767674;80;21142;-54
2021/01/08 03:20:06;;;;;;;2.25;1.45;;;;;;;1.52;80.15;98794.42;1720722;82;21284;-56
2021/01/08 03:22:33;;;;;;;2.52;1.70;;;;;;;1.58;79.86;98790.78;1737221;82;21173;-55
2021/01/08 03:25:02;;;;;;;2.95;1.65;;;;;;;1.62;79.96;98794.63;1737195;82;21320;-54
2021/01/08 03:27:30;;;;;;;2.15;1.25;;;;;;;1.56;80.33;98799.60;1737319;82;21205;-55
2021/01/08 03:29:57;;;;;;;2.85;1.65;;;;;;;1.55;80.42;98798.78;1739279;81;21150;-54
2021/01/08 03:32:24;;;;;;;3.35;2.00;;;;;;;1.63;80.21;98795.71;1737606;81;21554;-55
2021/01/08 03:34:52;;;;;;;3.22;2.02;;;;;;;1.62;80.29;98791.94;1737256;82;21197;-55
2021/01/08 03:37:20;;;;;;;3.30;2.00;;;;;;;1.57;80.67;98803.38;1743043;81;21210;-55
2021/01/08 03:39:47;;;;;;;3.40;2.10;;;;;;;1.63;80.64;98802.97;1744492;81;21146;-55
2021/01/08 03:42:15;;;;;;;3.70;2.20;;;;;;;1.66;80.76;98807.86;1687433;84;21185;-55
2021/01/08 03:44:42;;;;;;;3.85;2.08;;;;;;;1.57;80.76;98815.44;1665393;85;21200;-55
2021/01/08 03:47:10;;;;;;;3.02;1.90;;;;;;;1.62;80.83;98822.27;1654030;87;21267;-54
2021/01/08 03:49:40;;;;;;;4.10;2.05;;;;;;;1.68;80.35;98815.95;1739963;81;21157;-55
2021/01/08 03:52:08;;;;;;;3.42;2.33;;;;;;;1.74;80.28;98823.56;1738249;81;21126;-55
2021/01/08 03:54:36;;;;;;;4.00;2.40;;;;;;;1.68;80.58;98811.92;1687265;85;21186;-56
2021/01/08 03:57:04;;;;;;;4.10;2.60;;;;;;;1.70;80.60;98813.84;1693816;83;21746;-56
2021/01/08 03:59:32;;;;;;;4.30;2.58;;;;;;;1.81;80.40;98821.05;1737499;82;21989;-55
2021/01/08 04:01:59;;;;;;;4.55;2.67;;;;;;;1.75;80.65;98830.05;1737302;82;21161;-55
2021/01/08 04:04:27;;;;;;;4.85;2.62;;;;;;;1.78;80.85;98831.44;1737203;82;21632;-55
2021/01/08 04:06:55;;;;;;;8.10;4.10;;;;;;;1.84;80.91;98838.56;1739354;81;21133;-55
2021/01/08 04:09:22;;;;;;;8.28;4.08;;;;;;;1.79;80.99;98839.27;1660722;85;21193;-55
2021/01/08 04:11:50;;;;;;;6.40;3.62;;;;;;;1.83;81.08;98836.40;1737368;82;21178;-55
2021/01/08 04:14:18;;;;;;;5.75;3.42;;;;;;;1.73;81.53;98842.08;1737240;82;21174;-55
2021/01/08 04:16:45;;;;;;;6.03;4.22;;;;;;;1.72;81.41;98845.81;1746450;80;21141;-54
2021/01/08 04:19:13;;;;;;;6.40;4.25;;;;;;;1.77;81.32;98848.61;1687110;84;21188;-55
2021/01/08 04:21:45;;;;;;;7.87;5.10;;;;;;;1.78;81.38;98850.22;1692318;85;21153;-55
2021/01/08 04:24:10;;;;;;;6.15;4.08;;;;;;;1.71;81.78;98849.53;1675479;85;21190;-55
2021/01/08 04:26:39;;;;;;;7.60;4.85;;;;;;;1.71;81.90;98853.04;1684430;84;21156;-55
2021/01/08 04:29:07;;;;;;;6.95;4.25;;;;;;;1.74;81.87;98860.61;1721819;83;21596;-55
2021/01/08 04:31:35;;;;;;;7.87;5.10;;;;;;;1.79;81.75;98855.36;1737063;81;21632;-54
2021/01/08 04:34:03;;;;;;;8.68;5.40;;;;;;;1.70;81.94;98860.00;1737652;82;21178;-55
2021/01/08 04:36:31;;;;;;;9.20;6.28;;;;;;;1.70;81.95;98866.16;1746126;81;21590;-55
2021/01/08 04:38:58;;;;;;;9.55;6.15;;;;;;;1.74;81.73;98867.84;1687361;85;21181;-55
2021/01/08 04:41:25;;;;;;;9.60;6.30;;;;;;;1.79;81.56;98871.47;1692666;85;21203;-56
2021/01/08 04:43:53;;;;;;;11.20;6.65;;;;;;;1.75;81.56;98869.48;1675440;85;21190;-55
2021/01/08 04:46:29;;;;;;;10.28;6.90;;;;;;;1.69;81.68;98867.23;1685399;84;21599;-55
2021/01/08 04:49:06;;;;;;;10.38;7.05;;;;;;;1.73;81.29;98874.28;1664120;84;21153;-55
2021/01/08 04:51:35;;;;;;;14.18;8.15;;;;;;;1.75;81.13;98879.69;1737603;82;21598;-55
2021/01/08 04:54:03;;;;;;;10.93;7.20;;;;;;;1.75;81.12;98886.40;1744679;81;21150;-55
2021/01/08 04:56:41;;;;;;;11.40;7.50;;;;;;;1.80;80.97;98886.52;1767291;80;21200;-55
2021/01/08 04:59:09;;;;;;;12.90;8.05;;;;;;;1.80;80.88;98881.67;1767976;81;21134;-56
2021/01/08 05:01:36;;;;;;;14.78;9.13;;;;;;;1.70;81.27;98887.62;1767792;80;21142;-54
2021/01/08 05:04:05;;;;;;;12.25;7.95;;;;;;;1.69;81.20;98884.66;1746771;81;21692;-55
2021/01/08 05:06:32;;;;;;;14.30;8.50;;;;;;;1.80;81.02;98883.02;1762514;80;21211;-55
2021/01/08 05:08:59;;;;;;;13.65;8.53;;;;;;;1.73;81.03;98894.41;1767768;81;21161;-55
2021/01/08 05:11:29;;;;;;;14.23;9.10;;;;;;;1.77;81.09;98892.33;1768210;80;21162;-55
2021/01/08 05:14:03;;;;;;;14.95;9.38;;;;;;;1.78;81.15;98903.89;1749238;81;21098;-54
2021/01/08 05:16:31;;;;;;;15.85;10.32;;;;;;;1.74;81.28;98898.70;1737966;82;21295;-55
2021/01/08 05:19:02;;;;;;;15.30;10.00;;;;;;;1.77;81.11;98892.33;1737893;82;21192;-56
2021/01/08 05:21:32;;;;;;;17.25;11.12;;;;;;;1.70;81.33;98905.06;1737903;82;21180;-56
2021/01/08 05:24:04;;;;;;;18.07;10.80;;;;;;;1.70;81.30;98900.24;1740500;81;21137;-56
2021/01/08 05:26:31;;;;;;;18.35;11.40;;;;;;;1.73;81.20;98895.22;1740947;81;21149;-56
2021/01/08 05:29:01;;;;;;;19.17;11.43;;;;;;;1.72;81.27;98898.13;1759365;81;21597;-56
2021/01/08 05:31:31;;;;;;;18.35;11.68;;;;;;;1.71;81.40;98896.48;1737892;81;21162;-56
2021/01/08 05:33:59;;;;;;;19.85;12.40;;;;;;;1.77;81.20;98903.06;1765019;81;21613;-55
2021/01/08 05:36:26;;;;;;;20.02;12.95;;;;;;;1.71;81.39;98907.22;1737935;82;21187;-56
2021/01/08 05:38:57;;;;;;;20.48;12.53;;;;;;;1.67;81.36;98913.58;1765332;81;21145;-56
2021/01/08 05:41:26;;;;;;;23.15;14.03;;;;;;;1.76;81.22;98914.05;1768283;80;21146;-56
2021/01/08 05:43:54;;;;;;;22.45;13.83;;;;;;;1.71;81.24;98926.00;1761758;80;21107;-55
2021/01/08 05:46:30;;;;;;;22.85;14.13;;;;;;;1.71;81.35;98931.37;1742837;81;21158;-56
2021/01/08 05:49:03;;;;;;;21.73;14.30;;;;;;;1.75;81.13;98936.56;1768656;81;21296;-55
2021/01/08 05:51:32;;;;;;;24.07;14.25;;;;;;;1.71;81.37;98936.73;1757786;80;21662;-56
2021/01/08 05:54:00;;;;;;;23.92;14.73;;;;;;;1.66;81.33;98942.00;1738408;81;21510;-55
2021/01/08 05:56:30;;;;;;;26.95;15.72;;;;;;;1.66;81.18;98944.16;1738263;81;21149;-56
2021/01/08 05:59:01;;;;;;;26.65;14.93;;;;;;;1.61;81.41;98945.90;1738221;82;21596;-56
2021/01/08 06:01:28;;;;;;;26.15;16.32;;;;;;;1.64;81.47;98941.41;1740831;81;21690;-55
2021/01/08 06:03:55;;;;;;;31.65;17.95;;;;;;;1.65;81.37;98949.23;1690586;82;21130;-56
2021/01/08 06:09:02;;;;;;;29.48;18.32;;;;;;;1.57;81.95;98951.43;1779255;79;22938;-56
2021/01/08 06:11:30;;;;;;;32.40;19.82;;;;;;;1.60;81.60;98953.64;1702520;82;21580;-55
2021/01/08 06:14:03;;;;;;;29.92;17.42;;;;;;;1.55;81.81;98961.59;1722010;82;21589;-55
2021/01/08 06:16:46;;;;;;;30.08;17.62;;;;;;;1.49;81.83;98968.68;1714142;82;21640;-55
2021/01/08 06:19:14;;;;;;;28.95;17.67;;;;;;;1.52;81.74;98970.92;1713584;83;21153;-56
2021/01/08 06:21:44;;;;;;;30.60;17.32;;;;;;;1.43;81.99;98975.80;1716475;82;21200;-57
2021/01/08 06:24:24;;;;;;;28.90;16.07;;;;;;;1.44;81.89;98976.62;1708717;83;21186;-56
2021/01/08 06:26:51;;;;;;;26.33;16.52;;;;;;;1.50;81.67;98980.53;1722734;82;21828;-55
2021/01/08 06:29:23;;;;;;;28.70;16.48;;;;;;;1.48;81.58;98983.98;1715722;83;21171;-55
2021/01/08 06:31:56;;;;;;;27.48;15.32;;;;;;;1.46;81.60;98992.77;1711411;83;21133;-56
2021/01/08 06:34:29;;;;;;;25.00;15.20;;;;;;;1.37;81.79;98990.66;1723251;82;21564;-57
2021/01/08 06:37:07;;;;;;;29.10;15.95;;;;;;;1.45;81.66;99007.22;1722618;83;21191;-57
2021/01/08 06:39:41;;;;;;;24.07;14.68;;;;;;;1.44;81.67;99011.48;1690710;85;21125;-55
2021/01/08 06:42:09;;;;;;;23.77;14.15;;;;;;;1.39;81.65;99010.01;1707436;82;21203;-56
2021/01/08 06:44:36;;;;;;;23.57;13.53;;;;;;;1.43;81.50;99006.64;1687207;84;21187;-55
2021/01/08 06:47:05;;;;;;;25.10;14.73;;;;;;;1.47;81.19;99013.19;1707148;84;21202;-55
2021/01/08 06:49:35;;;;;;;25.02;14.38;;;;;;;1.43;81.36;99016.55;1708120;83;21210;-55
2021/01/08 06:52:04;;;;;;;26.55;15.48;;;;;;;1.53;81.28;99025.36;1695507;82;21671;-57
2021/01/08 06:54:31;;;;;;;24.98;14.50;;;;;;;1.54;81.40;99031.03;1708817;82;21121;-56
2021/01/08 06:57:00;;;;;;;23.73;14.78;;;;;;;1.48;81.44;99024.73;1714205;83;21170;-56
2021/01/08 06:59:33;;;;;;;23.92;13.83;;;;;;;1.52;81.19;99030.45;1707010;84;21183;-56
2021/01/08 07:02:17;;;;;;;23.27;14.65;;;;;;;1.54;81.01;99033.71;1710696;84;21184;-55
2021/01/08 07:04:44;;;;;;;21.50;14.07;;;;;;;1.47;81.23;99033.82;1706795;82;21522;-56
2021/01/08 07:07:14;;;;;;;24.52;14.78;;;;;;;1.56;81.02;99032.98;1705536;83;21253;-57
2021/01/08 07:09:41;;;;;;;23.52;14.53;;;;;;;1.50;81.03;99040.06;1682817;85;21163;-56
2021/01/08 07:12:11;;;;;;;23.55;14.20;;;;;;;1.49;80.96;99037.90;1694829;85;21407;-56
2021/01/08 07:14:39;;;;;;;21.25;13.48;;;;;;;1.58;80.70;99037.58;1709325;84;21165;-55
2021/01/08 07:17:12;;;;;;;22.90;13.58;;;;;;;1.55;80.89;99043.41;1698613;84;21189;-55
2021/01/08 07:19:44;;;;;;;20.90;14.68;;;;;;;1.53;80.87;99050.33;1694358;85;21159;-56
2021/01/08 07:22:19;;;;;;;22.20;14.28;;;;;;;1.62;80.64;99052.16;1693711;84;21190;-56
2021/01/08 07:24:48;;;;;;;23.20;14.63;;;;;;;1.54;80.69;99053.83;1694211;82;21603;-56
2021/01/08 07:27:23;;;;;;;22.27;14.00;;;;;;;1.50;80.77;99045.42;1702812;84;21138;-56
2021/01/08 07:29:57;;;;;;;20.65;12.75;;;;;;;1.58;80.47;99055.02;1709354;84;21601;-56
2021/01/08 07:32:46;;;;;;;20.82;13.00;;;;;;;1.52;80.82;99062.64;1703010;82;21224;-57
2021/01/08 07:35:29;;;;;;;23.47;13.58;;;;;;;1.56;80.80;99068.64;1698884;84;21174;-57
2021/01/08 07:40:56;;;;;;;21.90;12.82;;;;;;;1.59;80.81;99070.07;1772332;79;22998;-57
2021/01/08 07:43:34;;;;;;;22.70;14.87;;;;;;;1.53;80.96;99088.41;1722662;83;21710;-57
2021/01/08 07:46:04;;;;;;;21.35;13.15;;;;;;;1.64;80.60;99083.59;1709925;83;21183;-57
2021/01/08 07:48:38;;;;;;;19.50;11.97;;;;;;;1.61;80.44;99082.20;1692306;85;21386;-56
2021/01/08 07:51:10;;;;;;;21.82;12.88;;;;;;;1.57;80.57;99082.88;1711558;83;21164;-57
2021/01/08 07:53:50;;;;;;;22.13;14.15;;;;;;;1.63;80.05;99091.37;1661471;85;21176;-57
2021/01/08 07:56:27;;;;;;;22.02;13.78;;;;;;;1.67;80.09;99079.92;1683454;85;21614;-56
2021/01/08 07:59:04;;;;;;;20.12;12.43;;;;;;;1.63;80.37;99088.69;1683624;85;21153;-57
2021/01/08 08:01:32;;;;;;;17.70;10.98;;;;;;;1.61;80.35;99096.13;1661512;85;21184;-56
2021/01/08 08:04:05;;;;;;;21.02;12.93;;;;;;;1.68;79.59;99102.22;1682956;85;21172;-57
2021/01/08 08:06:35;;;;;;;21.45;12.47;;;;;;;1.63;79.77;99101.55;1654382;86;21209;-59
2021/01/08 08:09:08;;;;;;;18.37;11.57;;;;;;;1.60;79.61;99107.38;1656391;85;21236;-57
2021/01/08 08:11:36;;;;;;;19.70;11.80;;;;;;;1.65;79.43;99102.16;1676067;85;21204;-57
2021/01/08 08:14:05;;;;;;;19.62;11.53;;;;;;;1.56;79.34;99104.06;1656377;85;21603;-57
2021/01/08 08:16:37;;;;;;;18.77;12.03;;;;;;;1.62;79.24;99100.45;1683445;85;21714;-58
2021/01/08 08:19:10;;;;;;;17.27;12.07;;;;;;;1.68;78.95;99098.19;1663002;85;21207;-56
2021/01/08 08:21:40;;;;;;;19.55;11.73;;;;;;;1.59;78.97;99112.99;1671576;85;21188;-57
2021/01/08 08:26:21;;;;;;;19.52;12.10;;;;;;;1.72;78.83;99097.51;1765305;79;23399;-55
2021/01/08 08:29:12;;;;;;;19.23;12.40;;;;;;;1.63;79.22;99102.10;1722729;82;21291;-56
2021/01/08 08:31:51;;;;;;;18.12;11.35;;;;;;;1.59;79.37;99114.33;1722673;83;21137;-56
2021/01/08 08:34:31;;;;;;;18.62;13.40;;;;;;;1.67;79.15;99110.78;1720366;83;21181;-56
2021/01/08 08:37:08;;;;;;;21.97;14.63;;;;;;;1.71;78.91;99111.96;1693753;83;21201;-56
2021/01/08 08:39:37;;;;;;;20.90;13.68;;;;;;;1.64;79.12;99109.91;1693152;83;21138;-56
2021/01/08 08:42:05;;;;;;;20.02;13.60;;;;;;;1.71;78.50;99109.28;1722538;82;21298;-56
2021/01/08 08:44:41;;;;;;;21.23;13.62;;;;;;;1.73;78.29;99114.43;1670885;83;21165;-55
2021/01/08 08:47:10;;;;;;;21.27;14.85;;;;;;;1.63;78.24;99120.88;1722820;83;21364;-55
2021/01/08 08:49:38;;;;;;;23.73;15.83;;;;;;;1.70;78.12;99112.21;1681009;83;21355;-57
2021/01/08 08:52:06;;;;;;;22.37;14.00;;;;;;;1.68;77.98;99111.09;1722621;83;21214;-56
2021/01/08 08:54:39;;;;;;;20.75;14.05;;;;;;;1.63;78.23;99116.86;1722751;83;21181;-56
2021/01/08 08:57:08;;;;;;;23.25;13.53;;;;;;;1.67;78.01;99112.64;1722602;83;21322;-56
2021/01/08 08:59:44;;;;;;;20.02;14.18;;;;;;;1.71;77.56;99117.33;1675182;85;21668;-55
2021/01/08 09:02:29;;;;;;;20.70;13.50;;;;;;;1.66;77.96;99120.42;1665359;85;21184;-56
2021/01/08 09:04:58;;;;;;;19.12;12.53;;;;;;;1.69;77.56;99118.61;1683357;85;21165;-56
2021/01/08 09:07:54;;;;;;;19.92;12.33;;;;;;;1.81;77.53;99116.76;1678148;85;21624;-56
2021/01/08 09:10:24;;;;;;;21.15;13.43;;;;;;;1.76;77.38;99122.02;1654527;85;21221;-56
2021/01/08 09:13:06;;;;;;;17.32;11.83;;;;;;;1.74;77.63;99126.78;1643414;85;21246;-56
2021/01/08 09:15:36;;;;;;;17.87;11.97;;;;;;;1.78;76.75;99123.94;1657317;85;21331;-56
2021/01/08 09:18:33;;;;;;;16.60;11.85;;;;;;;1.64;76.71;99126.52;1661462;85;21189;-56
2021/01/08 09:21:25;;;;;;;18.95;12.05;;;;;;;1.72;77.06;99123.00;1660166;85;21192;-57
2021/01/08 09:23:54;;;;;;;16.87;12.13;;;;;;;1.81;76.60;99126.16;1660960;84;21548;-56
2021/01/08 09:26:21;;;;;;;17.92;11.80;;;;;;;1.72;77.49;99124.34;1656794;86;21625;-56
2021/01/08 09:28:51;;;;;;;16.62;10.35;;;;;;;1.75;76.94;99129.77;1642669;86;21190;-57
2021/01/08 09:31:21;;;;;;;18.02;11.25;;;;;;;1.83;76.33;99130.27;1686569;84;21166;-56
2021/01/08 09:33:57;;;;;;;17.25;11.70;;;;;;;1.79;76.00;99127.74;1707747;83;21146;-57
2021/01/08 09:36:33;;;;;;;17.23;10.88;;;;;;;1.72;76.59;99129.70;1709424;84;21521;-56
2021/01/08 09:39:08;;;;;;;15.53;11.00;;;;;;;1.79;76.22;99141.68;1709682;84;21158;-56
2021/01/08 09:41:37;;;;;;;15.88;10.85;;;;;;;1.85;76.06;99135.39;1694240;84;21191;-56
2021/01/08 09:44:07;;;;;;;15.55;10.65;;;;;;;1.76;76.19;99136.78;1679556;84;21178;-57
2021/01/08 09:47:00;;;;;;;15.40;10.63;;;;;;;1.79;76.37;99134.97;1683018;84;21615;-57
2021/01/08 09:49:50;;;;;;;19.55;11.95;;;;;;;1.85;75.19;99134.86;1680832;84;21169;-56
2021/01/08 09:52:27;;;;;;;15.53;10.18;;;;;;;1.76;75.77;99136.78;1635977;85;21198;-57
2021/01/08 09:54:56;;;;;;;16.40;10.48;;;;;;;1.74;75.48;99137.52;1664821;84;21206;-57
2021/01/08 09:57:35;;;;;;;15.63;10.23;;;;;;;1.82;75.24;99127.28;1687628;84;21188;-57
2021/01/08 10:00:11;;;;;;;16.35;11.10;;;;;;;1.77;75.13;99123.66;1680189;84;21234;-57
2021/01/08 10:02:42;;;;;;;16.52;9.90;;;;;;;1.74;75.40;99120.89;1636417;85;21161;-56
2021/01/08 10:05:27;;;;;;;16.23;10.58;;;;;;;1.83;74.98;99119.53;1707093;84;21186;-57
2021/01/08 10:07:56;;;;;;;14.95;8.93;;;;;;;1.87;73.99;99126.59;1686338;84;21170;-57
2021/01/08 10:10:35;;;;;;;13.70;8.73;;;;;;;1.75;73.33;99123.06;1680285;84;21391;-57
2021/01/08 10:13:03;;;;;;;14.13;9.58;;;;;;;1.77;73.87;99125.80;1635153;88;21597;-56
2021/01/08 10:15:47;;;;;;;13.32;9.40;;;;;;;1.89;73.72;99125.83;1693017;84;21174;-56
2021/01/08 10:18:27;;;;;;;13.00;8.65;;;;;;;1.84;73.31;99120.35;1635031;88;21560;-55
2021/01/08 10:21:09;;;;;;;15.15;9.05;;;;;;;1.79;73.53;99122.38;1679349;85;21178;-57
2021/01/08 10:23:42;;;;;;;16.30;9.03;;;;;;;1.87;73.46;99127.94;1635162;88;21343;-55
2021/01/08 10:26:14;;;;;;;14.00;9.63;;;;;;;1.95;73.34;99128.92;1681812;84;21182;-55
2021/01/08 10:28:52;;;;;;;13.62;9.58;;;;;;;1.87;73.37;99127.94;1680195;84;21158;-56
2021/01/08 10:31:22;;;;;;;12.63;7.92;;;;;;;1.81;73.39;99124.81;1679327;85;21324;-56
2021/01/08 10:33:50;;;;;;;11.22;7.60;;;;;;;1.83;72.07;99126.76;1691667;84;21617;-55
2021/01/08 10:36:18;;;;;;;13.62;9.13;;;;;;;1.85;71.33;99134.86;1708850;84;21602;-55
2021/01/08 10:38:45;;;;;;;12.85;7.58;;;;;;;1.80;72.12;99132.59;1709421;84;21737;-54
2021/01/08 10:41:17;;;;;;;12.95;7.90;;;;;;;1.75;72.19;99133.27;1687420;84;21195;-56
2021/01/08 10:43:46;;;;;;;14.83;8.98;;;;;;;1.85;71.78;99135.39;1709439;84;21157;-54
2021/01/08 10:46:14;;;;;;;13.25;9.05;;;;;;;1.86;72.02;99133.00;1706984;83;21559;-55
2021/01/08 10:48:43;;;;;;;13.10;8.33;;;;;;;1.79;72.53;99121.03;1692088;84;21162;-55
2021/01/08 10:51:10;;;;;;;11.33;7.47;;;;;;;1.75;72.31;99137.81;1701417;84;21313;-54
2021/01/08 10:53:38;;;;;;;13.05;8.08;;;;;;;1.86;71.86;99139.72;1709503;83;21316;-55
2021/01/08 10:56:05;;;;;;;11.78;8.58;;;;;;;1.86;71.32;99132.48;1707382;84;21299;-55
2021/01/08 10:58:34;;;;;;;12.35;7.97;;;;;;;1.80;71.63;99144.15;1689425;84;21296;-55
2021/01/08 11:01:02;;;;;;;14.50;8.70;;;;;;;1.75;71.96;99137.30;1685196;83;21227;-56
2021/01/08 11:03:30;;;;;;;11.97;7.28;;;;;;;1.77;72.28;99143.23;1680266;84;21214;-55
2021/01/08 11:05:58;;;;;;;10.75;6.97;;;;;;;1.80;71.43;99150.03;1635072;88;21704;-56
2021/01/08 11:08:25;;;;;;;10.98;7.72;;;;;;;1.78;69.74;99134.15;1679301;85;21205;-55
2021/01/08 11:10:53;;;;;;;11.48;6.97;;;;;;;1.72;70.16;99143.64;1681322;84;21206;-56
2021/01/08 11:13:20;;;;;;;13.83;7.78;;;;;;;1.71;70.79;99137.97;1679219;85;21174;-56
2021/01/08 11:15:48;;;;;;;13.25;8.90;;;;;;;1.73;71.33;99145.29;1703659;82;21154;-55
2021/01/08 11:18:16;;;;;;;14.28;9.15;;;;;;;1.76;71.30;99151.53;1708748;83;21182;-55
2021/01/08 11:20:48;;;;;;;13.35;8.63;;;;;;;1.73;70.95;99154.16;1709240;84;21189;-55
2021/01/08 11:23:16;;;;;;;13.18;8.93;;;;;;;1.74;71.00;99148.25;1701273;83;21146;-55
2021/01/08 11:25:44;;;;;;;12.23;7.72;;;;;;;1.72;70.58;99149.84;1639500;86;21204;-54
2021/01/08 11:28:12;;;;;;;11.08;7.92;;;;;;;1.67;70.01;99148.34;1668275;86;21204;-55
2021/01/08 11:30:39;;;;;;;13.32;7.80;;;;;;;1.68;70.54;99149.99;1694125;84;21183;-56
2021/01/08 11:33:07;;;;;;;11.00;7.40;;;;;;;1.63;70.37;99147.16;1697728;84;21234;-56
2021/01/08 11:35:35;;;;;;;11.78;7.03;;;;;;;1.64;70.00;99147.98;1697930;84;21612;-55
2021/01/08 11:38:02;;;;;;;11.57;7.67;;;;;;;1.57;69.81;99149.42;1697926;84;21618;-55
2021/01/08 11:40:30;;;;;;;12.60;7.60;;;;;;;1.62;70.04;99154.12;1697918;84;21338;-55
2021/01/08 11:42:57;;;;;;;13.10;8.20;;;;;;;1.60;70.08;99162.90;1697958;84;21167;-55
2021/01/08 11:45:24;;;;;;;11.18;7.33;;;;;;;1.58;70.31;99161.80;1697788;84;21207;-56
2021/01/08 11:47:51;;;;;;;9.75;6.97;;;;;;;1.62;70.22;99162.98;1697927;84;21187;-56
2021/01/08 11:50:19;;;;;;;11.97;7.80;;;;;;;1.63;70.10;99167.83;1697910;84;21738;-55
2021/01/08 11:52:46;;;;;;;10.88;7.12;;;;;;;1.64;70.66;99175.64;1697847;84;21175;-55
2021/01/08 11:55:15;;;;;;;12.07;7.42;;;;;;;1.64;70.03;99173.47;1697837;84;21167;-55
2021/01/08 11:57:42;;;;;;;13.78;9.13;;;;;;;1.65;70.25;99171.09;1697780;84;21705;-55